KLTS/LTS METAR and TAF weather

Enter ICAO airport designator
Station Type Date Time Source
KLTS METAR 2020/09/20 12:56 UTC NOAA

KLTS 201256Z AUTO 09003KT 6SM HZ CLR 11/ A3020 RMK AO2 SLP222 $


Station Type Date Time Source
KLTS Decoded METAR 2020/09/20 12:56 UTC NOAA

Altus Air Force Base, OK, United States (KLTS) 34-39N 099-16W 420M
Sep 20, 2020 - 08:56 AM EDT / 2020.09.20 1256 UTC
Wind: from the E (090 degrees) at 3 MPH (3 KT):0
Visibility: 6 mile(s):0
Sky conditions: clear
Weather: haze
Temperature: 51 F (11 C)
Pressure (altimeter): 30.2 in. Hg (1022 hPa)
ob: KLTS 201256Z AUTO 09003KT 6SM HZ CLR 11/ A3020 RMK AO2 SLP222
cycle: 13

Station Type Date Time Source
KLTS TAF 2020/09/19 06:55 UTC NOAA

TAF
AMD KLTS 190640Z 1906/2007 VRB06KT 9999 FEW020 QNH3013INS
BECMG 1914/1915 14009KT 9999 SKC QNH3008INS
BECMG 2000/2001 15006KT 9999 SKC QNH3004INS TX29/1921Z TN17/1912Z LAST NO
AMDS AFT 1906 NEXT 2109

Example: see airport list